Friday, March 27, 2015
20:55 UTC
  |  Log In   |  Register Free
Airport Search:

Olympia Regional Airport
(KOLM)

Airport information sponsored by:
Glacier Jet Center at Olympia Regional (KOLM), Olympia, WA
FAA data valid effective March 05, 2015 - April 30, 2015 (unless otherwise noted).

 
 
 
 
 
 
 
 
 
 
 
 
 
 

Current Aviation Weather for Olympia Regional Airport (KOLM)

The most recent METAR observation for KOLM was updated at: 1412
METAR Summary (Translated METAR)
KOLM
251354Z AUTO 20008KT 3SM -RA BR FEW011 OVC024 08/07 A3020 RMK AO2 SLP228 P0006 T00830072
KGRF
251358Z AUTO 16005KT 10SM -RA OVC028 08/08 A3019 RMK AO2 DZE28RAB40E56RAB57 SLP228 P0001 T00790078 $
(14.7 nm NE from KOLM)
KCLS
251355Z AUTO VRB04KT 10SM OVC009 09/09 A3022 RMK AO2
(17.9 nm SW from KOLM)
TAF Summary (Translated TAF)
KOLM
251120Z 2512/2612 22005KT P6SM -RA BKN025 OVC045 FM251800 20008KT 5SM -RA BR OVC020 FM260100 22005KT P6SM BKN030 OVC050 FM260900 00000KT 3/4SM BR BKN002 BKN025
KGRF
(14.7 nm NE from KOLM)
2513/2619 14008KT 9000 -RA OVC030 620559 QNH3015INS BECMG 2520/2521 20010G15KT 9000 -RA OVC030 620609 QNH3018INS BECMG 2602/2603 20008KT 9999 NSW BKN030 BKN080 620902 QNH3019INS BECMG 2608/2609 14006KT 9999 FEW030 BKN120 QNH3018INS TX14/2522Z TN06/2614Z
  Airport Weather Conditions for KOLM

 Current Weather at OLM
66° F
A Few Clouds
South winds at 9.2 mph
OLM NOAA Radar

Pressure: 30.02 in
Humidity: 61%
Wind: South at 9.2 MPH (8 KT)
Dew Point: 52.0°F
Visibility: 10.00 mi


Airport Weather Forecast for KOLM

Translated METAR and TAF for KOLM
Translated METAR for KOLM (2054 UTC 27 March 2015)
found at http://aviationweather.gov/adds/metars/
 
METAR text: KOLM 271954Z 20008KT 10SM FEW050 19/11 A3002 RMK AO2 SLP165 T01890111
Conditions at: KOLM (OLYMPIA , WA, US) observed 1954 UTC 27 March 2015
Temperature: 18.9°C (66°F)
Dewpoint: 11.1°C (52°F) [RH = 61%]
Pressure (altimeter): 30.02 inches Hg (1016.7 mb)
[Sea-level pressure: 1016.5 mb]
Winds: from the SSW (200 degrees) at 9 MPH (8 knots; 4.2 m/s)
Visibility: 10 or more miles (16+ km)
Ceiling: at least 12,000 feet AGL
Clouds: few clouds at 5000 feet AGL
Weather: no significant weather observed at this time
Translated TAF for KOLM
Forecast for: KOLM (OLYMPIA , WA, US)
TAF Text: KOLM 271720Z 2718/2818 23008KT P6SM SCT030 BKN150
Forecast period: 1800 to 2200 UTC 27 March 2015
Forecast type: FROM: standard forecast or significant change
Winds: from the SW (230 degrees) at 9 MPH (8 knots; 4.2 m/s)
Visibility: 6 or more miles (10+ km)
Ceiling: 15000 feet AGL
Clouds: scattered clouds at 3000 feet AGL
broken clouds at 15000 feet AGL
Weather: no significant weather forecast for this period
TAF Text: FM272200 23012KT P6SM BKN030 BKN120
Forecast period: 2200 UTC 27 March 2015 to 0300 UTC 28 March 2015
Forecast type: FROM: standard forecast or significant change
Winds: from the SW (230 degrees) at 14 MPH (12 knots; 6.2 m/s)
Visibility: 6 or more miles (10+ km)
Ceiling: 3000 feet AGL
Clouds: broken clouds at 3000 feet AGL
broken clouds at 12000 feet AGL
Weather: no significant weather forecast for this period
TAF Text: FM280300 22010KT P6SM -RA BKN020 OVC040
Forecast period: 0300 to 1200 UTC 28 March 2015
Forecast type: FROM: standard forecast or significant change
Winds: from the SW (220 degrees) at 12 MPH (10 knots; 5.2 m/s)
Visibility: 6 or more miles (10+ km)
Ceiling: 2000 feet AGL
Clouds: broken clouds at 2000 feet AGL
overcast cloud deck at 4000 feet AGL
Weather: -RA  (light rain)
TAF Text: FM281200 23010KT P6SM -SHRA BKN015 BKN030
Forecast period: 1200 to 1700 UTC 28 March 2015
Forecast type: FROM: standard forecast or significant change
Winds: from the SW (230 degrees) at 12 MPH (10 knots; 5.2 m/s)
Visibility: 6 or more miles (10+ km)
Ceiling: 1500 feet AGL
Clouds: broken clouds at 1500 feet AGL
broken clouds at 3000 feet AGL
Weather: -SHRA  (light rain showers)
TAF Text: FM281700 23008KT P6SM VCSH BKN025 BKN050
Forecast period: 1700 to 1800 UTC 28 March 2015
Forecast type: FROM: standard forecast or significant change
Winds: from the SW (230 degrees) at 9 MPH (8 knots; 4.2 m/s)
Visibility: 6 or more miles (10+ km)
Ceiling: 2500 feet AGL
Clouds: broken clouds at 2500 feet AGL
broken clouds at 5000 feet AGL
Weather: VCSH  (showers in vicinity)

Find All Airport Services Find A Hotel Find A Rental Car Find A Golf Course Find A Restaurant $100 Hamburger



FBO's on the Field
FBO Company Facility Photos Services Transportation Aviation Fuel Prices: Prices include tax
Catering Weather Repair Courtesy Rental Type 100LL JetA JetA+ MOGAS 8087
 
Glacier Jet Center

Glacier Jet Center logo
Currently rated 3.6 by 1 person
FS:
Last Updated: Feb-25
Login to update fuel prices
SS:
Contact Glacier Jet CenterMore FBO Information
 
Jorgensen Air Service

Jorgensen Air Service logo
Currently rated 4.7 by 3 people
FS:
Last Updated: Feb-21
Login to update fuel prices
SS:
Contact Jorgensen Air ServiceMore FBO Information
 
Add another FBO Facility Photos Catering Weather Repair Courtesy Rental Type 100LL JetA JetA+ MOGAS 8087
Services Transportation Aviation Fuel Prices: Prices include tax


model-print
model-print
model-print
model-print